createdAt,value
2017-08-21T00:00:30.784Z,0
2017-08-21T00:01:32.543Z,0
2017-08-21T00:02:34.210Z,0
2017-08-21T00:03:35.546Z,0
2017-08-21T00:04:37.929Z,0
2017-08-21T00:05:38.598Z,0
2017-08-21T00:06:39.711Z,0
2017-08-21T00:07:41.424Z,0
2017-08-21T00:08:43.039Z,0
2017-08-21T00:09:43.732Z,0
2017-08-21T00:10:44.542Z,0
2017-08-21T00:11:45.415Z,0
2017-08-21T00:12:46.158Z,0
2017-08-21T00:13:46.943Z,0
2017-08-21T00:14:47.667Z,0
2017-08-21T00:15:48.396Z,0
2017-08-21T00:16:49.432Z,0
2017-08-21T00:17:50.159Z,0
2017-08-21T00:18:50.891Z,0
2017-08-21T00:19:51.640Z,0
2017-08-21T00:20:52.347Z,0
2017-08-21T00:21:53.435Z,0
2017-08-21T00:22:54.228Z,0
2017-08-21T00:23:55.000Z,0
2017-08-21T00:24:55.733Z,0
2017-08-21T00:25:56.516Z,0
2017-08-21T00:26:57.265Z,0
2017-08-21T00:27:58.338Z,0
2017-08-21T00:28:59.072Z,0
2017-08-21T00:29:59.888Z,0
2017-08-21T00:31:00.633Z,0
2017-08-21T00:32:01.408Z,0
2017-08-21T00:33:02.478Z,0
2017-08-21T00:34:03.281Z,0
2017-08-21T00:35:04.008Z,0
2017-08-21T00:36:04.737Z,0
2017-08-21T00:37:05.541Z,0
2017-08-21T00:38:06.676Z,0
2017-08-21T00:39:07.502Z,0
2017-08-21T00:40:08.263Z,0
2017-08-21T00:41:09.067Z,0
2017-08-21T00:42:09.797Z,0
2017-08-21T00:43:10.962Z,0
2017-08-21T00:44:11.720Z,0
2017-08-21T00:45:12.523Z,0
2017-08-21T00:46:13.353Z,0
2017-08-21T00:47:14.167Z,0
2017-08-21T00:48:15.210Z,0
2017-08-21T00:49:15.944Z,0
2017-08-21T00:50:16.708Z,0
2017-08-21T00:51:17.497Z,0
2017-08-21T00:52:18.246Z,0
2017-08-21T00:53:19.220Z,0
2017-08-21T00:54:19.958Z,0
2017-08-21T00:55:20.693Z,0
2017-08-21T00:56:21.495Z,0
2017-08-21T00:57:22.289Z,0
2017-08-21T00:58:23.096Z,0
2017-08-21T00:59:23.845Z,0
2017-08-21T01:00:24.913Z,0
2017-08-21T01:01:25.662Z,0
2017-08-21T01:02:26.456Z,0
2017-08-21T01:03:27.197Z,0
2017-08-21T01:04:27.997Z,0
2017-08-21T01:05:29.140Z,0
2017-08-21T01:06:29.874Z,0
2017-08-21T01:07:30.687Z,0
2017-08-21T01:08:31.488Z,0
2017-08-21T01:09:32.244Z,0
2017-08-21T01:10:33.379Z,0
2017-08-21T01:11:34.171Z,0
2017-08-21T01:12:34.992Z,0
2017-08-21T01:13:35.794Z,0
2017-08-21T01:14:36.541Z,0
2017-08-21T01:15:37.576Z,0
2017-08-21T01:16:38.375Z,0
2017-08-21T01:17:39.107Z,0
2017-08-21T01:18:39.851Z,0
2017-08-21T01:19:40.651Z,0
2017-08-21T01:20:41.542Z,0
2017-08-21T01:21:42.270Z,0
2017-08-21T01:22:43.001Z,0
2017-08-21T01:23:43.797Z,0
2017-08-21T01:24:44.523Z,0
2017-08-21T01:25:45.343Z,0
2017-08-21T01:26:46.074Z,0
2017-08-21T01:27:46.810Z,0
2017-08-21T01:28:47.563Z,0
2017-08-21T01:29:48.514Z,0
2017-08-21T01:30:49.241Z,0
2017-08-21T01:31:50.041Z,0
2017-08-21T01:32:50.780Z,0
2017-08-21T01:33:51.519Z,0
2017-08-21T01:34:52.409Z,0
2017-08-21T01:35:53.215Z,0
2017-08-21T01:36:54.031Z,0
2017-08-21T01:37:54.765Z,0
2017-08-21T01:38:55.510Z,0
2017-08-21T01:39:56.237Z,0
2017-08-21T01:40:57.122Z,0
2017-08-21T01:41:57.848Z,0
2017-08-21T01:42:58.658Z,0
2017-08-21T01:43:59.461Z,0
2017-08-21T01:45:00.205Z,0
2017-08-21T01:46:01.021Z,0
2017-08-21T01:47:01.825Z,0
2017-08-21T01:48:02.568Z,0
2017-08-21T01:49:03.291Z,0
2017-08-21T01:50:04.022Z,0
2017-08-21T01:51:04.811Z,0
2017-08-21T01:52:05.594Z,0
2017-08-21T01:53:06.327Z,0
2017-08-21T01:54:07.113Z,0
2017-08-21T01:55:07.855Z,0
2017-08-21T01:56:08.952Z,0
2017-08-21T01:57:09.685Z,0
2017-08-21T01:58:10.498Z,0
2017-08-21T01:59:11.315Z,0
2017-08-21T02:00:12.059Z,0
2017-08-21T02:01:13.138Z,0
2017-08-21T02:02:13.969Z,0
2017-08-21T02:03:14.696Z,0
2017-08-21T02:04:15.452Z,0
2017-08-21T02:05:16.285Z,0
2017-08-21T02:06:17.371Z,0
2017-08-21T02:07:18.096Z,0
2017-08-21T02:08:18.827Z,0
2017-08-21T02:09:19.562Z,0
2017-08-21T02:10:20.286Z,0
2017-08-21T02:11:21.077Z,0
2017-08-21T02:12:21.812Z,0
2017-08-21T02:13:22.551Z,0
2017-08-21T02:14:23.369Z,0
2017-08-21T02:15:24.157Z,0
2017-08-21T02:16:24.905Z,0
2017-08-21T02:17:26.008Z,0
2017-08-21T02:18:26.742Z,0
2017-08-21T02:19:27.562Z,0
2017-08-21T02:20:28.368Z,0
2017-08-21T02:21:29.108Z,0
2017-08-21T02:22:30.307Z,0
2017-08-21T02:23:31.049Z,0
2017-08-21T02:24:31.852Z,0
2017-08-21T02:25:32.587Z,0
2017-08-21T02:26:33.315Z,0
2017-08-21T02:27:34.384Z,0
2017-08-21T02:28:35.128Z,0
2017-08-21T02:29:35.853Z,0
2017-08-21T02:30:36.646Z,0
2017-08-21T02:31:37.380Z,0
2017-08-21T02:32:38.181Z,0
2017-08-21T02:33:38.899Z,0
2017-08-21T02:34:39.629Z,0
2017-08-21T02:35:40.507Z,0
2017-08-21T02:36:41.221Z,0
2017-08-21T02:37:42.270Z,0
2017-08-21T02:38:43.012Z,0
2017-08-21T02:39:43.807Z,0
2017-08-21T02:40:44.591Z,0
2017-08-21T02:41:45.324Z,0
2017-08-21T02:42:46.360Z,0
2017-08-21T02:43:47.093Z,0
2017-08-21T02:44:47.827Z,0
2017-08-21T02:45:48.557Z,0
2017-08-21T02:46:49.351Z,0
2017-08-21T02:47:50.488Z,0
2017-08-21T02:48:51.273Z,0
2017-08-21T02:49:51.996Z,0
2017-08-21T02:50:52.830Z,0
2017-08-21T02:51:53.647Z,0
2017-08-21T02:52:54.788Z,0
2017-08-21T02:53:55.577Z,0
2017-08-21T02:54:56.295Z,0
2017-08-21T02:55:57.048Z,0
2017-08-21T02:56:57.778Z,0
2017-08-21T02:57:58.517Z,0
2017-08-21T02:58:59.247Z,0
2017-08-21T03:00:00.295Z,0
2017-08-21T03:01:01.027Z,0
2017-08-21T03:02:01.754Z,0
2017-08-21T03:03:02.492Z,0
2017-08-21T03:04:03.226Z,0
2017-08-21T03:05:04.326Z,0
2017-08-21T03:06:05.078Z,0
2017-08-21T03:07:05.812Z,0
2017-08-21T03:08:06.552Z,0
2017-08-21T03:09:07.296Z,0
2017-08-21T03:10:08.468Z,0
2017-08-21T03:11:09.214Z,0
2017-08-21T03:12:09.944Z,0
2017-08-21T03:13:10.675Z,0
2017-08-21T03:14:11.490Z,0
2017-08-21T03:15:12.335Z,0
2017-08-21T03:16:13.140Z,0
2017-08-21T03:17:13.877Z,0
2017-08-21T03:18:14.618Z,0
2017-08-21T03:19:15.350Z,0
2017-08-21T03:20:16.495Z,0
2017-08-21T03:21:17.291Z,0
2017-08-21T03:22:18.091Z,0
2017-08-21T03:23:18.892Z,0
2017-08-21T03:24:19.663Z,0
2017-08-21T03:25:20.452Z,0
2017-08-21T03:26:21.194Z,0
2017-08-21T03:27:21.935Z,0
2017-08-21T03:28:22.651Z,0
2017-08-21T03:29:23.384Z,0
2017-08-21T03:30:24.595Z,0
2017-08-21T03:31:25.333Z,0
2017-08-21T03:32:26.060Z,0
2017-08-21T03:33:26.839Z,0
2017-08-21T03:34:27.583Z,0
2017-08-21T03:35:28.600Z,0
2017-08-21T03:36:29.413Z,0
2017-08-21T03:37:30.138Z,0
2017-08-21T03:38:30.879Z,0
2017-08-21T03:39:31.683Z,0
2017-08-21T03:40:32.784Z,0
2017-08-21T03:41:33.570Z,0
2017-08-21T03:42:34.366Z,0
2017-08-21T03:43:35.149Z,0
2017-08-21T03:44:35.931Z,0
2017-08-21T03:45:36.742Z,0
2017-08-21T03:46:37.559Z,0
2017-08-21T03:47:38.293Z,0
2017-08-21T03:48:39.100Z,0
2017-08-21T03:49:39.835Z,0
2017-08-21T03:50:40.776Z,0
2017-08-21T03:51:41.602Z,0
2017-08-21T03:52:42.379Z,0
2017-08-21T03:53:43.190Z,0
2017-08-21T03:54:43.931Z,0
2017-08-21T03:55:45.061Z,0
2017-08-21T03:56:45.791Z,0
2017-08-21T03:57:46.527Z,0
2017-08-21T03:58:47.338Z,0
2017-08-21T03:59:48.081Z,0
2017-08-21T04:00:49.107Z,0
2017-08-21T04:01:49.837Z,0
2017-08-21T04:02:50.574Z,0
2017-08-21T04:03:51.372Z,0
2017-08-21T04:04:52.211Z,0
2017-08-21T04:05:52.941Z,0
2017-08-21T04:06:53.667Z,5
2017-08-21T04:07:54.532Z,5
2017-08-21T04:08:55.268Z,5
2017-08-21T04:09:56.017Z,5
2017-08-21T04:10:56.749Z,5
2017-08-21T04:11:57.583Z,5
2017-08-21T04:12:58.668Z,5
2017-08-21T04:13:59.404Z,11
2017-08-21T04:15:00.138Z,11
2017-08-21T04:16:00.874Z,11
2017-08-21T04:17:01.634Z,11
2017-08-21T04:18:02.825Z,11
2017-08-21T04:19:03.644Z,16
2017-08-21T04:20:04.466Z,16
2017-08-21T04:21:05.180Z,16
2017-08-21T04:22:05.985Z,16
2017-08-21T04:23:07.148Z,22
2017-08-21T04:24:07.891Z,22
2017-08-21T04:25:08.684Z,22
2017-08-21T04:26:09.503Z,22
2017-08-21T04:27:10.306Z,28
2017-08-21T04:28:11.098Z,28
2017-08-21T04:29:12.244Z,33
2017-08-21T04:30:13.050Z,33
2017-08-21T04:31:13.849Z,39
2017-08-21T04:32:14.572Z,39
2017-08-21T04:33:15.309Z,45
2017-08-21T04:34:16.441Z,45
2017-08-21T04:35:17.238Z,50
2017-08-21T04:36:17.969Z,50
2017-08-21T04:37:18.709Z,56
2017-08-21T04:38:19.519Z,56
2017-08-21T04:39:20.676Z,56
2017-08-21T04:40:21.494Z,61
2017-08-21T04:41:22.314Z,61
2017-08-21T04:42:23.124Z,67
2017-08-21T04:43:23.851Z,67
2017-08-21T04:44:24.617Z,73
2017-08-21T04:45:25.403Z,73
2017-08-21T04:46:26.141Z,78
2017-08-21T04:47:26.940Z,84
2017-08-21T04:48:27.752Z,84
2017-08-21T04:49:28.789Z,90
2017-08-21T04:50:29.549Z,90
2017-08-21T04:51:30.275Z,95
2017-08-21T04:52:31.092Z,95
2017-08-21T04:53:31.831Z,101
2017-08-21T04:54:32.980Z,101
2017-08-21T04:55:33.768Z,101
2017-08-21T04:56:34.613Z,101
2017-08-21T04:57:35.339Z,106
2017-08-21T04:58:36.084Z,106
2017-08-21T04:59:37.244Z,112
2017-08-21T05:00:37.984Z,112
2017-08-21T05:01:38.797Z,118
2017-08-21T05:02:39.539Z,118
2017-08-21T05:03:40.315Z,123
2017-08-21T05:04:41.418Z,123
2017-08-21T05:05:42.161Z,129
2017-08-21T05:06:42.895Z,135
2017-08-21T05:07:43.639Z,135
2017-08-21T05:08:44.360Z,140
2017-08-21T05:09:45.395Z,140
2017-08-21T05:10:46.137Z,146
2017-08-21T05:11:46.883Z,151
2017-08-21T05:12:47.703Z,151
2017-08-21T05:13:48.520Z,157
2017-08-21T05:14:49.262Z,157
2017-08-21T05:15:50.018Z,163
2017-08-21T05:16:50.709Z,163
2017-08-21T05:17:51.513Z,163
2017-08-21T05:18:52.251Z,168
2017-08-21T05:19:52.988Z,168
2017-08-21T05:20:53.744Z,174
2017-08-21T05:21:54.474Z,174
2017-08-21T05:22:55.647Z,180
2017-08-21T05:23:56.380Z,180
2017-08-21T05:24:57.126Z,185
2017-08-21T05:25:57.913Z,185
2017-08-21T05:26:58.733Z,191
2017-08-21T05:27:59.872Z,196
2017-08-21T05:29:00.609Z,196
2017-08-21T05:30:01.423Z,202
2017-08-21T05:31:02.161Z,202
2017-08-21T05:32:02.892Z,208
2017-08-21T05:33:03.699Z,208
2017-08-21T05:34:04.443Z,213
2017-08-21T05:35:05.468Z,219
2017-08-21T05:36:06.235Z,225
2017-08-21T05:37:07.035Z,225
2017-08-21T05:38:07.799Z,236
2017-08-21T05:39:08.541Z,230
2017-08-21T05:40:09.689Z,236
2017-08-21T05:41:10.487Z,236
2017-08-21T05:42:11.233Z,241
2017-08-21T05:43:12.047Z,247
2017-08-21T05:44:12.778Z,247
2017-08-21T05:45:13.916Z,247
2017-08-21T05:46:14.663Z,258
2017-08-21T05:47:15.467Z,247
2017-08-21T05:48:16.216Z,253
2017-08-21T05:49:17.011Z,253
2017-08-21T05:50:18.201Z,258
2017-08-21T05:51:18.949Z,258
2017-08-21T05:52:19.767Z,264
2017-08-21T05:53:20.570Z,264
2017-08-21T05:54:21.378Z,270
2017-08-21T05:55:22.477Z,270
2017-08-21T05:56:23.217Z,275
2017-08-21T05:57:23.969Z,275
2017-08-21T05:58:24.711Z,281
2017-08-21T05:59:25.468Z,281
2017-08-21T06:00:26.302Z,292
2017-08-21T06:01:27.337Z,298
2017-08-21T06:02:28.077Z,298
2017-08-21T06:03:28.833Z,298
2017-08-21T06:04:29.558Z,298
2017-08-21T06:05:30.362Z,303
2017-08-21T06:06:31.494Z,303
2017-08-21T06:07:32.223Z,309
2017-08-21T06:08:32.950Z,309
2017-08-21T06:09:33.677Z,315
2017-08-21T06:10:34.416Z,315
2017-08-21T06:11:35.571Z,320
2017-08-21T06:12:36.305Z,320
2017-08-21T06:13:37.085Z,326
2017-08-21T06:14:37.902Z,326
2017-08-21T06:15:38.649Z,331
2017-08-21T06:16:39.859Z,331
2017-08-21T06:17:40.610Z,348
2017-08-21T06:18:41.344Z,348
2017-08-21T06:19:42.149Z,354
2017-08-21T06:20:42.964Z,354
2017-08-21T06:21:43.840Z,360
2017-08-21T06:22:44.578Z,360
2017-08-21T06:23:45.345Z,365
2017-08-21T06:24:46.149Z,371
2017-08-21T06:25:46.885Z,371
2017-08-21T06:26:47.677Z,376
2017-08-21T06:27:48.431Z,382
2017-08-21T06:28:49.176Z,382
2017-08-21T06:29:49.919Z,388
2017-08-21T06:30:50.661Z,393
2017-08-21T06:31:51.819Z,393
2017-08-21T06:32:52.628Z,399
2017-08-21T06:33:53.375Z,399
2017-08-21T06:34:54.178Z,405
2017-08-21T06:35:54.989Z,410
2017-08-21T06:36:56.217Z,410
2017-08-21T06:37:57.017Z,416
2017-08-21T06:38:57.758Z,421
2017-08-21T06:39:58.568Z,421
2017-08-21T06:40:59.389Z,427
2017-08-21T06:42:00.554Z,427
2017-08-21T06:43:01.333Z,427
2017-08-21T06:44:02.069Z,433
2017-08-21T06:45:02.889Z,433
2017-08-21T06:46:03.617Z,438
2017-08-21T06:47:04.831Z,438
2017-08-21T06:48:05.575Z,444
2017-08-21T06:49:06.402Z,455
2017-08-21T06:50:07.153Z,450
2017-08-21T06:51:07.978Z,450
2017-08-21T06:52:09.089Z,455
2017-08-21T06:53:09.826Z,455
2017-08-21T06:54:10.574Z,461
2017-08-21T06:55:11.377Z,472
2017-08-21T06:56:12.121Z,466
2017-08-21T06:57:13.157Z,472
2017-08-21T06:58:13.906Z,472
2017-08-21T06:59:14.690Z,489
2017-08-21T07:00:15.480Z,500
2017-08-21T07:01:16.227Z,489
2017-08-21T07:02:17.275Z,483
2017-08-21T07:03:18.101Z,483
2017-08-21T07:04:18.844Z,489
2017-08-21T07:05:19.656Z,495
2017-08-21T07:06:20.391Z,495
2017-08-21T07:07:21.226Z,506
2017-08-21T07:08:21.972Z,540
2017-08-21T07:09:22.778Z,545
2017-08-21T07:10:23.525Z,540
2017-08-21T07:11:24.361Z,540
2017-08-21T07:12:25.151Z,517
2017-08-21T07:13:25.887Z,517
2017-08-21T07:14:26.639Z,517
2017-08-21T07:15:27.462Z,528
2017-08-21T07:16:28.266Z,523
2017-08-21T07:17:29.138Z,528
2017-08-21T07:18:29.875Z,551
2017-08-21T07:19:30.621Z,618
2017-08-21T07:20:31.348Z,635
2017-08-21T07:21:32.090Z,556
2017-08-21T07:22:32.841Z,562
2017-08-21T07:23:33.566Z,562
2017-08-21T07:24:34.313Z,573
2017-08-21T07:25:35.110Z,568
2017-08-21T07:26:36.156Z,568
2017-08-21T07:27:36.983Z,568
2017-08-21T07:28:37.799Z,579
2017-08-21T07:29:38.650Z,585
2017-08-21T07:30:39.379Z,579
2017-08-21T07:31:40.541Z,641
2017-08-21T07:32:41.362Z,618
2017-08-21T07:33:42.158Z,669
2017-08-21T07:34:42.918Z,843
2017-08-21T07:35:43.655Z,855
2017-08-21T07:36:44.800Z,804
2017-08-21T07:37:45.550Z,916
2017-08-21T07:38:46.356Z,933
2017-08-21T07:39:47.163Z,933
2017-08-21T07:40:47.964Z,945
2017-08-21T07:41:48.763Z,961
2017-08-21T07:42:49.589Z,978
2017-08-21T07:43:50.338Z,978
2017-08-21T07:44:51.142Z,990
2017-08-21T07:45:51.907Z,995
2017-08-21T07:46:53.002Z,1006
2017-08-21T07:47:53.807Z,1001
2017-08-21T07:48:54.561Z,1012
2017-08-21T07:49:55.441Z,849
2017-08-21T07:50:56.171Z,810
2017-08-21T07:51:57.262Z,933
2017-08-21T07:52:58.084Z,1046
2017-08-21T07:53:58.886Z,1006
2017-08-21T07:54:59.630Z,1080
2017-08-21T07:56:00.450Z,1096
2017-08-21T07:57:01.690Z,1119
2017-08-21T07:58:02.386Z,1108
2017-08-21T07:59:03.232Z,1119
2017-08-21T08:00:03.992Z,1130
2017-08-21T08:01:04.746Z,1141
2017-08-21T08:02:05.899Z,1164
2017-08-21T08:03:06.653Z,1164
2017-08-21T08:04:07.446Z,1170
2017-08-21T08:05:08.191Z,1215
2017-08-21T08:06:08.941Z,1231
2017-08-21T08:07:09.827Z,1209
2017-08-21T08:08:10.566Z,1209
2017-08-21T08:09:11.385Z,1260
2017-08-21T08:10:12.118Z,1265
2017-08-21T08:11:12.859Z,1310
2017-08-21T08:12:13.840Z,1333
2017-08-21T08:13:14.587Z,1006
2017-08-21T08:14:15.338Z,1648
2017-08-21T08:15:16.141Z,798
2017-08-21T08:16:16.882Z,1861
2017-08-21T08:17:17.994Z,1546
2017-08-21T08:18:18.740Z,1901
2017-08-21T08:19:19.484Z,1760
2017-08-21T08:20:20.282Z,714
2017-08-21T08:21:21.095Z,759
2017-08-21T08:22:22.131Z,1366
2017-08-21T08:23:22.950Z,1794
2017-08-21T08:24:23.714Z,1423
2017-08-21T08:25:24.537Z,1833
2017-08-21T08:26:25.357Z,1833
2017-08-21T08:27:26.520Z,1906
2017-08-21T08:28:27.341Z,1940
2017-08-21T08:29:28.086Z,1890
2017-08-21T08:30:28.899Z,1850
2017-08-21T08:31:29.650Z,1378
2017-08-21T08:32:30.787Z,843
2017-08-21T08:33:31.593Z,748
2017-08-21T08:34:32.426Z,1473
2017-08-21T08:35:33.161Z,933
2017-08-21T08:36:33.912Z,1535
2017-08-21T08:37:35.047Z,1839
2017-08-21T08:38:35.783Z,793
2017-08-21T08:39:36.574Z,1895
2017-08-21T08:40:37.375Z,990
2017-08-21T08:41:38.116Z,753
2017-08-21T08:42:38.857Z,765
2017-08-21T08:43:39.980Z,1839
2017-08-21T08:44:40.719Z,1783
2017-08-21T08:45:41.460Z,1721
2017-08-21T08:46:42.181Z,1541
2017-08-21T08:47:42.913Z,1687
2017-08-21T08:48:43.650Z,1653
2017-08-21T08:49:44.369Z,1524
2017-08-21T08:50:45.168Z,1175
2017-08-21T08:51:45.901Z,1333
2017-08-21T08:52:46.646Z,1299
2017-08-21T08:53:47.692Z,1231
2017-08-21T08:54:48.417Z,916
2017-08-21T08:55:49.172Z,894
2017-08-21T08:56:49.989Z,871
2017-08-21T08:57:50.735Z,1130
2017-08-21T08:58:51.770Z,832
2017-08-21T08:59:52.530Z,798
2017-08-21T09:00:53.256Z,742
2017-08-21T09:01:54.002Z,703
2017-08-21T09:02:54.832Z,714
2017-08-21T09:03:55.627Z,708
2017-08-21T09:04:56.607Z,703
2017-08-21T09:05:57.347Z,748
2017-08-21T09:06:58.185Z,810
2017-08-21T09:07:58.985Z,1192
2017-08-21T09:08:59.731Z,1215
2017-08-21T09:10:00.633Z,1215
2017-08-21T09:11:01.387Z,1226
2017-08-21T09:12:02.131Z,1231
2017-08-21T09:13:02.946Z,1226
2017-08-21T09:14:04.348Z,1192
2017-08-21T09:15:05.473Z,1153
2017-08-21T09:16:06.224Z,1181
2017-08-21T09:17:06.979Z,1198
2017-08-21T09:18:07.717Z,1215
2017-08-21T09:19:08.471Z,1203
2017-08-21T09:20:09.211Z,1136
2017-08-21T09:21:09.959Z,1192
2017-08-21T09:22:10.810Z,1209
2017-08-21T09:23:12.043Z,1198
2017-08-21T09:24:12.789Z,1209
2017-08-21T09:25:13.526Z,1237
2017-08-21T09:26:14.263Z,1243
2017-08-21T09:27:15.010Z,1248
2017-08-21T09:28:15.880Z,1271
2017-08-21T09:29:16.672Z,1282
2017-08-21T09:30:17.409Z,1305
2017-08-21T09:31:18.155Z,1321
2017-08-21T09:32:18.976Z,1333
2017-08-21T09:33:20.012Z,1355
2017-08-21T09:34:20.763Z,1434
2017-08-21T09:35:21.576Z,1535
2017-08-21T09:36:22.331Z,1586
2017-08-21T09:37:23.140Z,1181
2017-08-21T09:38:23.973Z,1119
2017-08-21T09:39:24.785Z,1608
2017-08-21T09:40:25.564Z,1569
2017-08-21T09:41:26.457Z,1524
2017-08-21T09:42:27.272Z,1507
2017-08-21T09:43:28.024Z,1456
2017-08-21T09:44:28.769Z,1141
2017-08-21T09:45:29.506Z,1485
2017-08-21T09:46:30.742Z,1530
2017-08-21T09:47:31.544Z,1440
2017-08-21T09:48:32.387Z,1676
2017-08-21T09:49:33.162Z,1665
2017-08-21T09:50:33.973Z,1383
2017-08-21T09:51:34.801Z,1203
2017-08-21T09:52:35.550Z,1597
2017-08-21T09:53:36.747Z,1653
2017-08-21T09:54:37.486Z,1698
2017-08-21T09:55:38.248Z,1755
2017-08-21T09:56:39.066Z,1766
2017-08-21T09:57:39.833Z,1749
2017-08-21T09:58:40.548Z,1766
2017-08-21T09:59:41.638Z,1895
2017-08-21T10:00:42.340Z,2351
2017-08-21T10:01:43.114Z,2840
2017-08-21T10:02:43.905Z,3200
2017-08-21T10:03:44.646Z,3127
2017-08-21T10:04:45.688Z,3054
2017-08-21T10:05:46.500Z,3071
2017-08-21T10:06:47.261Z,2941
2017-08-21T10:07:48.077Z,2998
2017-08-21T10:08:48.817Z,3127
2017-08-21T10:09:49.570Z,3127
2017-08-21T10:10:50.328Z,2233
2017-08-21T10:11:51.126Z,2947
2017-08-21T10:12:51.880Z,2463
2017-08-21T10:13:52.620Z,2829
2017-08-21T10:14:53.757Z,2851
2017-08-21T10:15:54.496Z,2941
2017-08-21T10:16:55.229Z,1434
2017-08-21T10:17:56.061Z,1338
2017-08-21T10:18:56.801Z,2728
2017-08-21T10:19:57.926Z,2626
2017-08-21T10:20:58.670Z,1051
2017-08-21T10:21:59.486Z,1108
2017-08-21T10:23:00.307Z,2716
2017-08-21T10:24:01.051Z,2761
2017-08-21T10:25:01.995Z,2716
2017-08-21T10:26:02.766Z,1153
2017-08-21T10:27:03.584Z,2368
2017-08-21T10:28:04.327Z,2801
2017-08-21T10:29:05.081Z,2818
2017-08-21T10:30:06.023Z,2812
2017-08-21T10:31:06.729Z,2840
2017-08-21T10:32:07.481Z,2891
2017-08-21T10:33:08.227Z,2919
2017-08-21T10:34:09.040Z,2947
2017-08-21T10:35:10.191Z,2891
2017-08-21T10:36:11.007Z,2975
2017-08-21T10:37:11.834Z,3026
2017-08-21T10:38:12.575Z,3060
2017-08-21T10:39:13.331Z,2992
2017-08-21T10:40:14.217Z,2953
2017-08-21T10:41:15.029Z,1614
2017-08-21T10:42:15.874Z,2745
2017-08-21T10:43:16.608Z,2880
2017-08-21T10:44:17.431Z,1575
2017-08-21T10:45:18.642Z,1411
2017-08-21T10:46:19.440Z,2750
2017-08-21T10:47:20.245Z,2632
2017-08-21T10:48:21.001Z,1366
2017-08-21T10:49:21.734Z,1569
2017-08-21T10:50:22.833Z,2790
2017-08-21T10:51:23.572Z,2806
2017-08-21T10:52:24.360Z,2790
2017-08-21T10:53:25.118Z,1192
2017-08-21T10:54:25.943Z,2626
2017-08-21T10:55:27.132Z,1001
2017-08-21T10:56:27.952Z,945
2017-08-21T10:57:28.768Z,928
2017-08-21T10:58:29.624Z,995
2017-08-21T10:59:30.440Z,2694
2017-08-21T11:00:31.590Z,2812
2017-08-21T11:01:32.339Z,2722
2017-08-21T11:02:33.080Z,2711
2017-08-21T11:03:33.824Z,2784
2017-08-21T11:04:34.569Z,2795
2017-08-21T11:05:35.707Z,2806
2017-08-21T11:06:36.446Z,2812
2017-08-21T11:07:37.224Z,2784
2017-08-21T11:08:38.019Z,2773
2017-08-21T11:09:38.842Z,2221
2017-08-21T11:10:39.961Z,2806
2017-08-21T11:11:40.712Z,2840
2017-08-21T11:12:41.521Z,2840
2017-08-21T11:13:42.274Z,2823
2017-08-21T11:14:43.072Z,2823
2017-08-21T11:15:43.821Z,2835
2017-08-21T11:16:44.634Z,1378
2017-08-21T11:17:45.726Z,2851
2017-08-21T11:18:46.491Z,2823
2017-08-21T11:19:47.321Z,1125
2017-08-21T11:20:48.140Z,1091
2017-08-21T11:21:48.889Z,2863
2017-08-21T11:22:49.980Z,2902
2017-08-21T11:23:50.724Z,2902
2017-08-21T11:24:51.464Z,2851
2017-08-21T11:25:52.216Z,1833
2017-08-21T11:26:52.965Z,2930
2017-08-21T11:27:53.872Z,2947
2017-08-21T11:28:54.678Z,2964
2017-08-21T11:29:55.428Z,2896
2017-08-21T11:30:56.246Z,2795
2017-08-21T11:31:57.003Z,2610
2017-08-21T11:32:58.053Z,1845
2017-08-21T11:33:58.857Z,2835
2017-08-21T11:34:59.675Z,2790
2017-08-21T11:36:00.431Z,2013
2017-08-21T11:37:01.237Z,1080
2017-08-21T11:38:02.077Z,1175
2017-08-21T11:39:02.951Z,1608
2017-08-21T11:40:03.702Z,3020
2017-08-21T11:41:04.534Z,3020
2017-08-21T11:42:05.277Z,3043
2017-08-21T11:43:06.019Z,3015
2017-08-21T11:44:07.120Z,2739
2017-08-21T11:45:07.876Z,2874
2017-08-21T11:46:08.611Z,2925
2017-08-21T11:47:09.351Z,2958
2017-08-21T11:48:10.152Z,2941
2017-08-21T11:49:11.335Z,2925
2017-08-21T11:50:12.092Z,2908
2017-08-21T11:51:12.920Z,2851
2017-08-21T11:52:13.739Z,1411
2017-08-21T11:53:14.492Z,978
2017-08-21T11:54:15.724Z,984
2017-08-21T11:55:16.554Z,1085
2017-08-21T11:56:17.307Z,1479
2017-08-21T11:57:18.063Z,3127
2017-08-21T11:58:18.854Z,3133
2017-08-21T11:59:19.609Z,1569
2017-08-21T12:00:20.420Z,2418
2017-08-21T12:01:21.167Z,3155
2017-08-21T12:02:22.384Z,2205
2017-08-21T12:03:23.203Z,3127
2017-08-21T12:04:24.001Z,1535
2017-08-21T12:05:24.774Z,2356
2017-08-21T12:06:25.565Z,3071
2017-08-21T12:07:26.567Z,3088
2017-08-21T12:08:27.303Z,3133
2017-08-21T12:09:28.098Z,2784
2017-08-21T12:10:28.837Z,3043
2017-08-21T12:11:29.591Z,1710
2017-08-21T12:12:30.708Z,1282
2017-08-21T12:13:31.458Z,1327
2017-08-21T12:14:32.268Z,2390
2017-08-21T12:15:33.090Z,2075
2017-08-21T12:16:33.835Z,1541
2017-08-21T12:17:34.994Z,1614
2017-08-21T12:18:35.821Z,3138
2017-08-21T12:19:36.652Z,3093
2017-08-21T12:20:37.471Z,2503
2017-08-21T12:21:38.228Z,1288
2017-08-21T12:22:39.036Z,2469
2017-08-21T12:23:39.869Z,3060
2017-08-21T12:24:40.620Z,3076
2017-08-21T12:25:41.375Z,3150
2017-08-21T12:26:42.156Z,2283
2017-08-21T12:27:43.208Z,2261
2017-08-21T12:28:43.981Z,1580
2017-08-21T12:29:44.696Z,2424
2017-08-21T12:30:45.441Z,1355
2017-08-21T12:31:46.175Z,1434
2017-08-21T12:32:47.315Z,3099
2017-08-21T12:33:48.070Z,3015
2017-08-21T12:34:48.808Z,1473
2017-08-21T12:35:49.573Z,1299
2017-08-21T12:36:50.373Z,1035
2017-08-21T12:37:51.175Z,652
2017-08-21T12:38:51.990Z,624
2017-08-21T12:39:52.826Z,556
2017-08-21T12:40:53.577Z,635
2017-08-21T12:41:54.318Z,663
2017-08-21T12:42:55.094Z,669
2017-08-21T12:43:56.230Z,697
2017-08-21T12:44:57.036Z,691
2017-08-21T12:45:57.847Z,646
2017-08-21T12:46:58.650Z,630
2017-08-21T12:47:59.465Z,613
2017-08-21T12:49:00.547Z,568
2017-08-21T12:50:01.296Z,990
2017-08-21T12:51:02.117Z,826
2017-08-21T12:52:02.857Z,770
2017-08-21T12:53:03.610Z,1001
2017-08-21T12:54:04.756Z,900
2017-08-21T12:55:05.510Z,326
2017-08-21T12:56:06.249Z,315
2017-08-21T12:57:07.058Z,331
2017-08-21T12:58:07.906Z,303
2017-08-21T12:59:09.471Z,478
2017-08-21T13:00:10.289Z,461
2017-08-21T13:01:11.107Z,2553
2017-08-21T13:02:11.857Z,2565
2017-08-21T13:03:12.611Z,2598
2017-08-21T13:04:13.405Z,2576
2017-08-21T13:05:14.148Z,1102
2017-08-21T13:06:14.965Z,2559
2017-08-21T13:07:15.717Z,2565
2017-08-21T13:08:16.482Z,2570
2017-08-21T13:09:17.529Z,2553
2017-08-21T13:10:18.283Z,2525
2017-08-21T13:11:19.087Z,2520
2017-08-21T13:12:19.825Z,2531
2017-08-21T13:13:20.626Z,2508
2017-08-21T13:14:21.841Z,2497
2017-08-21T13:15:22.650Z,2491
2017-08-21T13:16:23.450Z,2536
2017-08-21T13:17:24.180Z,2520
2017-08-21T13:18:24.988Z,2497
2017-08-21T13:19:26.105Z,2469
2017-08-21T13:20:26.878Z,2480
2017-08-21T13:21:27.625Z,2469
2017-08-21T13:22:28.437Z,2452
2017-08-21T13:23:29.192Z,2435
2017-08-21T13:24:30.309Z,2424
2017-08-21T13:25:31.134Z,2289
2017-08-21T13:26:31.895Z,1068
2017-08-21T13:27:32.647Z,2295
2017-08-21T13:28:33.417Z,1125
2017-08-21T13:29:34.506Z,2244
2017-08-21T13:30:35.247Z,1215
2017-08-21T13:31:35.986Z,748
2017-08-21T13:32:36.691Z,742
2017-08-21T13:33:37.445Z,1468
2017-08-21T13:34:38.710Z,1985
2017-08-21T13:35:39.520Z,2205
2017-08-21T13:36:40.320Z,2171
2017-08-21T13:37:41.084Z,866
2017-08-21T13:38:41.867Z,2086
2017-08-21T13:39:43.375Z,2075
2017-08-21T13:40:44.201Z,2148
2017-08-21T13:41:44.907Z,714
2017-08-21T13:42:45.716Z,691
2017-08-21T13:43:46.546Z,2171
2017-08-21T13:44:47.709Z,686
2017-08-21T13:45:48.488Z,697
2017-08-21T13:46:49.289Z,1220
2017-08-21T13:47:50.032Z,2053
2017-08-21T13:48:50.846Z,2137
2017-08-21T13:49:51.750Z,2160
2017-08-21T13:50:52.474Z,2176
2017-08-21T13:51:53.286Z,2154
2017-08-21T13:52:54.041Z,2148
2017-08-21T13:53:54.783Z,2137
2017-08-21T13:54:55.899Z,2165
2017-08-21T13:55:56.705Z,1625
2017-08-21T13:56:57.498Z,1777
2017-08-21T13:57:58.239Z,2143
2017-08-21T13:58:59.052Z,2098
2017-08-21T13:59:59.862Z,2002
2017-08-21T14:01:00.618Z,1991
2017-08-21T14:02:01.375Z,1980
2017-08-21T14:03:02.213Z,1805
2017-08-21T14:04:03.365Z,1974
2017-08-21T14:05:04.111Z,1980